createdAt,value
2023-04-12T00:01:40.578Z,5.02
2023-04-12T00:04:14.777Z,5.00
2023-04-12T00:06:48.807Z,5.00
2023-04-12T00:09:21.760Z,4.99
2023-04-12T00:11:54.032Z,4.99
2023-04-12T00:14:26.208Z,4.97
2023-04-12T00:16:58.442Z,4.95
2023-04-12T00:19:31.275Z,4.93
2023-04-12T00:22:03.753Z,4.91
2023-04-12T00:24:35.956Z,4.87
2023-04-12T00:27:08.443Z,4.81
2023-04-12T00:29:41.595Z,4.77
2023-04-12T00:32:14.919Z,4.72
2023-04-12T00:34:47.056Z,4.62
2023-04-12T00:37:19.200Z,4.58
2023-04-12T00:39:51.623Z,4.53
2023-04-12T00:42:23.808Z,4.50
2023-04-12T00:44:56.336Z,4.47
2023-04-12T00:47:29.818Z,4.45
2023-04-12T00:50:03.146Z,4.41
2023-04-12T00:52:35.919Z,4.42
2023-04-12T00:55:10.761Z,4.41
2023-04-12T00:57:43.019Z,4.44
2023-04-12T01:00:17.675Z,4.43
2023-04-12T01:02:51.102Z,4.38
2023-04-12T01:05:25.262Z,4.35
2023-04-12T01:08:12.183Z,4.28
2023-04-12T01:10:57.849Z,4.16
2023-04-12T01:13:34.848Z,4.06
2023-04-12T01:16:13.634Z,3.99
2023-04-12T01:18:52.283Z,3.96
2023-04-12T01:21:33.043Z,3.88
2023-04-12T01:24:25.083Z,3.82
2023-04-12T01:27:00.868Z,3.79
2023-04-12T01:29:33.352Z,3.80
2023-04-12T01:32:06.849Z,3.89
2023-04-12T01:34:41.637Z,3.87
2023-04-12T01:37:14.330Z,3.81
2023-04-12T01:39:46.644Z,3.79
2023-04-12T01:42:23.082Z,3.82
2023-04-12T01:44:55.365Z,3.83
2023-04-12T01:47:28.544Z,3.85
2023-04-12T01:50:13.404Z,3.82
2023-04-12T01:52:54.225Z,3.75
2023-04-12T01:55:28.076Z,3.64
2023-04-12T01:58:03.642Z,3.56
2023-04-12T02:00:38.166Z,3.49
2023-04-12T02:03:12.604Z,3.46
2023-04-12T02:05:45.558Z,3.44
2023-04-12T02:08:17.748Z,3.42
2023-04-12T02:10:51.679Z,3.41
2023-04-12T02:13:23.819Z,3.38
2023-04-12T02:15:55.916Z,3.36
2023-04-12T02:18:28.192Z,3.36
2023-04-12T02:21:00.874Z,3.34
2023-04-12T02:23:33.747Z,3.33
2023-04-12T02:26:06.205Z,3.27
2023-04-12T02:28:39.382Z,3.27
2023-04-12T02:31:13.488Z,3.27
2023-04-12T02:33:45.964Z,3.26
2023-04-12T02:36:18.650Z,3.28
2023-04-12T02:38:51.951Z,3.29
2023-04-12T02:41:27.444Z,3.18
2023-04-12T02:44:00.077Z,3.15
2023-04-12T02:46:32.465Z,3.08
2023-04-12T02:49:05.345Z,2.98
2023-04-12T02:51:41.939Z,2.89
2023-04-12T02:54:15.802Z,2.87
2023-04-12T02:56:59.685Z,2.82
2023-04-12T02:59:54.559Z,2.73
2023-04-12T03:02:30.181Z,2.73
2023-04-12T03:05:05.140Z,2.76
2023-04-12T03:07:45.293Z,2.78
2023-04-12T03:10:17.863Z,2.77
2023-04-12T03:12:54.469Z,2.75
2023-04-12T03:15:28.370Z,2.77
2023-04-12T03:18:01.790Z,2.79
2023-04-12T03:20:36.912Z,2.77
2023-04-12T03:23:12.230Z,2.75
2023-04-12T03:25:48.891Z,2.80
2023-04-12T03:28:33.600Z,2.81
2023-04-12T03:31:07.920Z,2.81
2023-04-12T03:33:51.530Z,2.80
2023-04-12T03:36:34.156Z,2.59
2023-04-12T03:39:15.047Z,2.43
2023-04-12T03:41:48.089Z,2.37
2023-04-12T03:44:21.443Z,2.34
2023-04-12T03:46:55.321Z,2.25
2023-04-12T03:49:29.050Z,2.17
2023-04-12T03:52:02.017Z,2.15
2023-04-12T03:54:34.339Z,2.08
2023-04-12T03:57:10.655Z,2.04
2023-04-12T03:59:48.915Z,1.93
2023-04-12T04:02:21.421Z,2.06
2023-04-12T04:04:55.644Z,2.13
2023-04-12T04:07:33.196Z,2.20
2023-04-12T04:10:07.043Z,2.15
2023-04-12T04:12:41.147Z,1.98
2023-04-12T04:15:17.784Z,1.91
2023-04-12T04:17:50.175Z,1.92
2023-04-12T04:20:25.029Z,1.91
2023-04-12T04:22:58.370Z,1.96
2023-04-12T04:25:31.575Z,2.05
2023-04-12T04:28:08.030Z,2.20
2023-04-12T04:30:40.365Z,2.23
2023-04-12T04:33:16.246Z,2.10
2023-04-12T04:35:49.859Z,2.06
2023-04-12T04:38:28.620Z,2.15
2023-04-12T04:41:10.566Z,2.21
2023-04-12T04:43:54.457Z,2.24
2023-04-12T04:46:30.652Z,2.27
2023-04-12T04:49:02.922Z,2.33
2023-04-12T04:51:36.871Z,2.36
2023-04-12T04:54:09.919Z,2.46
2023-04-12T04:56:44.446Z,2.65
2023-04-12T04:59:20.200Z,2.90
2023-04-12T05:01:52.830Z,2.98
2023-04-12T05:04:25.369Z,3.09
2023-04-12T05:06:59.358Z,3.25
2023-04-12T05:09:32.442Z,3.40
2023-04-12T05:12:05.232Z,3.45
2023-04-12T05:14:47.223Z,3.35
2023-04-12T05:17:23.633Z,3.28
2023-04-12T05:19:56.122Z,3.36
2023-04-12T05:22:29.789Z,3.41
2023-04-12T05:25:03.284Z,3.45
2023-04-12T05:27:37.463Z,3.44
2023-04-12T05:30:12.591Z,3.57
2023-04-12T05:32:45.022Z,3.75
2023-04-12T05:35:18.238Z,3.81
2023-04-12T05:37:51.120Z,3.84
2023-04-12T05:40:23.494Z,3.93
2023-04-12T05:42:56.761Z,3.87
2023-04-12T05:45:29.561Z,3.89
2023-04-12T05:48:04.449Z,3.90
2023-04-12T05:50:37.222Z,4.03
2023-04-12T05:53:10.746Z,4.23
2023-04-12T05:55:43.088Z,4.43
2023-04-12T05:58:15.838Z,4.63
2023-04-12T06:00:51.883Z,4.81
2023-04-12T06:03:25.837Z,4.95
2023-04-12T06:06:02.755Z,5.13
2023-04-12T06:08:36.662Z,5.29
2023-04-12T06:11:12.246Z,5.46
2023-04-12T06:13:45.583Z,5.65
2023-04-12T06:16:18.090Z,5.85
2023-04-12T06:18:50.697Z,5.96
2023-04-12T06:21:24.583Z,6.05
2023-04-12T06:23:57.138Z,6.17
2023-04-12T06:26:38.985Z,6.34
2023-04-12T06:29:12.880Z,6.51
2023-04-12T06:31:45.381Z,6.67
2023-04-12T06:34:17.628Z,6.86
2023-04-12T06:36:50.341Z,7.00
2023-04-12T06:39:22.566Z,7.17
2023-04-12T06:41:56.117Z,7.34
2023-04-12T06:44:28.526Z,7.52
2023-04-12T06:47:01.019Z,7.66
2023-04-12T06:49:36.642Z,7.82
2023-04-12T06:52:09.166Z,8.03
2023-04-12T06:54:42.844Z,8.18
2023-04-12T06:57:15.208Z,8.35
2023-04-12T06:59:47.416Z,8.51
2023-04-12T07:02:19.761Z,8.66
2023-04-12T07:04:55.130Z,8.78
2023-04-12T07:07:27.387Z,8.90
2023-04-12T07:10:00.595Z,9.07
2023-04-12T07:12:32.848Z,9.22
2023-04-12T07:15:05.521Z,9.36
2023-04-12T07:17:38.166Z,9.49
2023-04-12T07:20:12.447Z,9.62
2023-04-12T07:22:44.999Z,9.75
2023-04-12T07:25:17.367Z,9.84
2023-04-12T07:27:51.723Z,9.97
2023-04-12T07:30:24.503Z,10.00
2023-04-12T07:33:08.307Z,10.07
2023-04-12T07:35:45.113Z,10.18
2023-04-12T07:38:17.873Z,10.26
2023-04-12T07:40:50.393Z,10.27
2023-04-12T07:43:23.066Z,10.28
2023-04-12T07:45:57.439Z,10.48
2023-04-12T07:48:29.827Z,10.69
2023-04-12T07:51:03.025Z,10.86
2023-04-12T07:53:35.293Z,10.86
2023-04-12T07:56:08.730Z,10.89
2023-04-12T07:58:41.469Z,10.98
2023-04-12T08:01:17.330Z,11.02
2023-04-12T08:03:49.993Z,10.93
2023-04-12T08:06:22.381Z,10.62
2023-04-12T08:08:54.749Z,10.23
2023-04-12T08:11:27.034Z,10.16
2023-04-12T08:13:59.706Z,10.39
2023-04-12T08:16:32.723Z,10.64
2023-04-12T08:19:05.214Z,11.02
2023-04-12T08:21:37.546Z,11.29
2023-04-12T08:24:10.664Z,11.34
2023-04-12T08:26:43.316Z,11.37
2023-04-12T08:29:15.892Z,11.21
2023-04-12T08:31:48.574Z,10.85
2023-04-12T08:34:22.688Z,10.77
2023-04-12T08:36:55.266Z,10.80
2023-04-12T08:39:27.762Z,11.12
2023-04-12T08:42:00.724Z,11.56
2023-04-12T08:44:39.074Z,11.86
2023-04-12T08:47:12.636Z,11.94
2023-04-12T08:49:45.464Z,11.83
2023-04-12T08:52:18.471Z,11.84
2023-04-12T08:54:50.886Z,12.00
2023-04-12T08:57:23.783Z,12.19
2023-04-12T08:59:56.996Z,12.17
2023-04-12T09:02:30.178Z,12.18
2023-04-12T09:05:03.113Z,12.18
2023-04-12T09:07:37.288Z,12.05
2023-04-12T09:10:11.955Z,11.90
2023-04-12T09:12:51.061Z,11.68
2023-04-12T09:15:25.354Z,11.33
2023-04-12T09:18:09.609Z,11.21
2023-04-12T09:20:42.106Z,11.19
2023-04-12T09:23:25.409Z,11.12
2023-04-12T09:25:57.864Z,11.08
2023-04-12T09:28:32.090Z,11.14
2023-04-12T09:31:04.787Z,11.39
2023-04-12T09:33:39.501Z,11.74
2023-04-12T09:36:14.599Z,11.82
2023-04-12T09:39:02.592Z,11.80
2023-04-12T09:41:35.162Z,11.77
2023-04-12T09:44:07.527Z,11.78
2023-04-12T09:46:53.263Z,12.09
2023-04-12T09:49:41.909Z,12.40
2023-04-12T09:52:13.107Z,12.78
2023-04-12T09:55:00.274Z,13.29
2023-04-12T09:57:35.431Z,13.91
2023-04-12T10:00:14.695Z,14.23
2023-04-12T10:02:50.342Z,14.54
2023-04-12T10:05:27.157Z,14.69
2023-04-12T10:08:01.663Z,15.23
2023-04-12T10:10:36.216Z,15.72
2023-04-12T10:13:10.911Z,16.08
2023-04-12T10:15:43.438Z,16.41
2023-04-12T10:18:19.468Z,16.50
2023-04-12T10:20:52.983Z,16.47
2023-04-12T10:23:27.300Z,16.27
2023-04-12T10:26:00.357Z,16.71
2023-04-12T10:28:33.715Z,16.78
2023-04-12T10:31:31.421Z,16.65
2023-04-12T10:34:07.192Z,16.59
2023-04-12T10:36:59.216Z,16.82
2023-04-12T10:39:43.196Z,17.16
2023-04-12T10:42:24.510Z,16.94
2023-04-12T10:45:01.001Z,17.03
2023-04-12T10:48:02.062Z,17.26
2023-04-12T10:50:35.567Z,17.42
2023-04-12T10:53:29.209Z,17.58
2023-04-12T10:56:38.696Z,17.66
2023-04-12T10:59:12.045Z,17.77
2023-04-12T11:02:13.957Z,17.97
2023-04-12T11:05:10.447Z,17.94
2023-04-12T11:08:03.106Z,18.01
2023-04-12T11:10:47.356Z,18.32
2023-04-12T11:13:40.486Z,18.09
2023-04-12T11:16:14.164Z,18.15
2023-04-12T11:18:49.347Z,18.39
2023-04-12T11:21:22.578Z,18.38
2023-04-12T11:23:56.733Z,18.63
2023-04-12T11:26:34.740Z,18.71
2023-04-12T11:29:16.973Z,18.96
2023-04-12T11:31:49.433Z,18.96
2023-04-12T11:34:23.588Z,19.02
2023-04-12T11:36:56.703Z,18.71
2023-04-12T11:39:31.314Z,18.00
2023-04-12T11:42:04.108Z,17.88
2023-04-12T11:44:54.502Z,17.85
2023-04-12T11:47:29.262Z,18.07
2023-04-12T11:50:02.144Z,18.08
2023-04-12T11:52:35.890Z,18.55
2023-04-12T11:55:11.442Z,18.82
2023-04-12T11:57:43.745Z,18.90
2023-04-12T12:00:18.296Z,18.96
2023-04-12T12:03:06.848Z,19.11
2023-04-12T12:05:43.284Z,19.41
2023-04-12T12:08:14.709Z,19.88
2023-04-12T12:11:06.415Z,19.87
2023-04-12T12:13:52.216Z,19.93
2023-04-12T12:16:30.526Z,20.14
2023-04-12T12:19:06.560Z,20.34
2023-04-12T12:21:38.781Z,20.39
2023-04-12T12:24:15.644Z,20.28
2023-04-12T12:26:50.712Z,20.66
2023-04-12T12:29:25.351Z,20.76
2023-04-12T12:31:58.326Z,20.48
2023-04-12T12:34:35.745Z,20.37
2023-04-12T12:37:11.692Z,20.58
2023-04-12T12:40:07.431Z,20.78
2023-04-12T12:42:47.058Z,21.39
2023-04-12T12:45:22.087Z,21.16
2023-04-12T12:47:56.733Z,21.46
2023-04-12T12:50:30.906Z,21.99
2023-04-12T12:53:06.682Z,22.39
2023-04-12T12:55:39.460Z,22.19
2023-04-12T12:58:11.963Z,22.39
2023-04-12T13:00:44.293Z,23.26
2023-04-12T13:03:17.012Z,24.00
2023-04-12T13:05:49.723Z,24.04
2023-04-12T13:08:23.066Z,24.30
2023-04-12T13:10:56.069Z,24.18
2023-04-12T13:13:28.464Z,23.99
2023-04-12T13:16:01.491Z,24.61
2023-04-12T13:18:33.934Z,24.87
2023-04-12T13:21:06.769Z,25.23
2023-04-12T13:23:41.206Z,25.79
2023-04-12T13:26:13.616Z,25.49
2023-04-12T13:28:45.803Z,25.56
2023-04-12T13:31:18.288Z,25.92
2023-04-12T13:33:50.639Z,26.13
2023-04-12T13:36:23.073Z,25.37
2023-04-12T13:38:55.536Z,24.56
2023-04-12T13:41:31.253Z,24.24
2023-04-12T13:44:04.273Z,25.21
2023-04-12T13:46:36.655Z,26.48
2023-04-12T13:49:09.606Z,27.27
2023-04-12T13:51:41.871Z,27.40
2023-04-12T13:54:15.818Z,27.89
2023-04-12T13:56:48.140Z,27.92
2023-04-12T13:59:20.588Z,28.18
2023-04-12T14:01:53.212Z,28.39
2023-04-12T14:04:28.784Z,28.13
2023-04-12T14:07:00.146Z,28.46
2023-04-12T14:09:34.100Z,29.25
2023-04-12T14:12:06.236Z,29.70
2023-04-12T14:14:38.977Z,29.73
2023-04-12T14:17:11.803Z,29.39
2023-04-12T14:19:44.589Z,29.25
2023-04-12T14:22:16.782Z,29.51
2023-04-12T14:24:48.851Z,28.63
2023-04-12T14:27:21.496Z,28.40
2023-04-12T14:29:54.008Z,28.14
2023-04-12T14:32:27.391Z,26.99
2023-04-12T14:35:00.074Z,27.01
2023-04-12T14:37:32.979Z,27.50
2023-04-12T14:40:08.644Z,27.55
2023-04-12T14:42:41.365Z,27.86
2023-04-12T14:45:15.888Z,28.10
2023-04-12T14:47:48.858Z,28.41
2023-04-12T14:50:22.428Z,28.55
2023-04-12T14:52:54.623Z,29.13
2023-04-12T14:55:27.242Z,29.64
2023-04-12T14:57:59.805Z,29.57
2023-04-12T15:00:33.093Z,29.82
2023-04-12T15:03:07.412Z,29.69
2023-04-12T15:05:40.298Z,29.54
2023-04-12T15:08:12.460Z,29.33
2023-04-12T15:10:44.748Z,29.71
2023-04-12T15:13:17.281Z,29.81
2023-04-12T15:15:49.874Z,29.79
2023-04-12T15:18:22.111Z,29.44
2023-04-12T15:20:54.243Z,29.07
2023-04-12T15:23:26.713Z,29.14
2023-04-12T15:26:02.464Z,28.79
2023-04-12T15:28:34.755Z,28.74
2023-04-12T15:31:08.341Z,28.18
2023-04-12T15:33:40.779Z,27.80
2023-04-12T15:36:13.300Z,27.41
2023-04-12T15:38:45.754Z,25.82
2023-04-12T15:41:18.136Z,24.40
2023-04-12T15:43:50.985Z,23.01
2023-04-12T15:46:23.744Z,21.58
2023-04-12T15:48:57.813Z,20.57
2023-04-12T15:51:30.567Z,19.26
2023-04-12T15:54:02.923Z,18.41
2023-04-12T15:56:35.719Z,17.59
2023-04-12T15:59:07.926Z,17.06
2023-04-12T16:01:40.609Z,16.31
2023-04-12T16:04:13.911Z,15.89
2023-04-12T16:06:46.613Z,15.51
2023-04-12T16:09:19.005Z,15.14
2023-04-12T16:11:51.591Z,14.85
2023-04-12T16:14:28.043Z,14.59
2023-04-12T16:17:00.426Z,14.29
2023-04-12T16:19:33.639Z,14.08
2023-04-12T16:22:07.137Z,13.97
2023-04-12T16:24:41.268Z,13.82
2023-04-12T16:27:14.986Z,13.61
2023-04-12T16:29:47.913Z,13.52
2023-04-12T16:32:20.636Z,13.41
2023-04-12T16:34:53.148Z,13.27
2023-04-12T16:37:25.346Z,13.15
2023-04-12T16:39:57.795Z,13.10
2023-04-12T16:42:31.945Z,13.03
2023-04-12T16:45:05.022Z,12.96
2023-04-12T16:47:37.945Z,12.84
2023-04-12T16:50:13.540Z,12.72
2023-04-12T16:52:46.239Z,12.63
2023-04-12T16:55:18.422Z,12.53
2023-04-12T16:57:53.467Z,12.49
2023-04-12T17:00:29.269Z,12.41
2023-04-12T17:03:01.518Z,12.28
2023-04-12T17:05:35.152Z,12.18
2023-04-12T17:08:11.005Z,12.15
2023-04-12T17:10:43.908Z,12.10
2023-04-12T17:13:20.430Z,12.04
2023-04-12T17:15:53.390Z,11.90
2023-04-12T17:18:27.041Z,11.88
2023-04-12T17:20:59.549Z,11.88
2023-04-12T17:23:32.025Z,11.84
2023-04-12T17:26:04.333Z,11.73
2023-04-12T17:28:39.374Z,11.65
2023-04-12T17:31:11.679Z,11.56
2023-04-12T17:33:44.358Z,11.36
2023-04-12T17:36:17.005Z,11.20
2023-04-12T17:38:49.504Z,11.05
2023-04-12T17:41:21.768Z,10.96
2023-04-12T17:43:54.564Z,10.92
2023-04-12T17:46:27.549Z,10.90
2023-04-12T17:49:02.903Z,10.86
2023-04-12T17:51:35.619Z,10.78
2023-04-12T17:54:08.596Z,10.67
2023-04-12T17:56:42.619Z,10.49
2023-04-12T17:59:15.508Z,10.37
2023-04-12T18:01:48.105Z,10.32
2023-04-12T18:04:21.399Z,10.27
2023-04-12T18:06:54.171Z,10.21
2023-04-12T18:09:28.731Z,10.14
2023-04-12T18:12:01.322Z,10.10
2023-04-12T18:14:34.728Z,10.02
2023-04-12T18:17:07.224Z,9.97
2023-04-12T18:19:40.018Z,9.92
2023-04-12T18:22:12.559Z,9.83
2023-04-12T18:24:45.064Z,9.71
2023-04-12T18:27:17.335Z,9.64
2023-04-12T18:29:50.220Z,9.57
2023-04-12T18:32:22.747Z,9.43
2023-04-12T18:34:55.272Z,9.33
2023-04-12T18:37:28.609Z,9.25
2023-04-12T18:40:00.869Z,9.13
2023-04-12T18:42:33.128Z,9.05
2023-04-12T18:45:06.802Z,8.96
2023-04-12T18:47:40.682Z,8.83
2023-04-12T18:50:14.332Z,8.69
2023-04-12T18:52:47.091Z,8.52
2023-04-12T18:55:19.686Z,8.41
2023-04-12T18:57:52.438Z,8.26
2023-04-12T19:00:26.101Z,8.14
2023-04-12T19:03:00.007Z,8.05
2023-04-12T19:05:35.609Z,8.01
2023-04-12T19:08:10.433Z,8.00
2023-04-12T19:10:44.012Z,7.96
2023-04-12T19:13:18.071Z,7.87
2023-04-12T19:15:55.580Z,7.76
2023-04-12T19:18:31.655Z,7.74
2023-04-12T19:21:07.687Z,7.74
2023-04-12T19:23:41.401Z,7.71
2023-04-12T19:26:17.369Z,7.64
2023-04-12T19:28:55.807Z,7.49
2023-04-12T19:31:29.894Z,7.32
2023-04-12T19:34:05.697Z,7.20
2023-04-12T19:36:37.910Z,7.10
2023-04-12T19:39:12.743Z,7.07
2023-04-12T19:41:48.809Z,7.10
2023-04-12T19:44:23.626Z,7.12
2023-04-12T19:46:58.150Z,7.12
2023-04-12T19:49:33.606Z,7.12
2023-04-12T19:52:07.681Z,7.10
2023-04-12T19:54:40.871Z,7.02
2023-04-12T19:57:14.532Z,6.98
2023-04-12T19:59:47.411Z,6.90
2023-04-12T20:02:20.437Z,6.88
2023-04-12T20:04:53.690Z,6.86
2023-04-12T20:07:26.777Z,6.75
2023-04-12T20:10:00.799Z,6.65
2023-04-12T20:12:34.172Z,6.56
2023-04-12T20:15:08.499Z,6.53
2023-04-12T20:17:42.608Z,6.51
2023-04-12T20:20:15.702Z,6.50
2023-04-12T20:22:52.205Z,6.46
2023-04-12T20:25:26.067Z,6.37
2023-04-12T20:27:58.858Z,6.38
2023-04-12T20:30:32.041Z,6.39
2023-04-12T20:33:04.578Z,6.39
2023-04-12T20:35:38.450Z,6.41
2023-04-12T20:38:10.906Z,6.41
2023-04-12T20:40:43.095Z,6.40
2023-04-12T20:43:15.654Z,6.39
2023-04-12T20:45:49.044Z,6.38
2023-04-12T20:48:22.496Z,6.35
2023-04-12T20:50:56.417Z,6.27
2023-04-12T20:53:30.468Z,6.28
2023-04-12T20:56:02.631Z,6.30
2023-04-12T20:58:35.715Z,6.34
2023-04-12T21:01:14.641Z,6.34
2023-04-12T21:03:47.849Z,6.30
2023-04-12T21:06:20.453Z,6.28
2023-04-12T21:08:53.971Z,6.27
2023-04-12T21:11:27.734Z,6.25
2023-04-12T21:14:00.066Z,6.20
2023-04-12T21:16:32.397Z,6.18
2023-04-12T21:19:04.728Z,6.14
2023-04-12T21:21:37.330Z,6.15
2023-04-12T21:24:09.737Z,6.11
2023-04-12T21:26:43.756Z,6.07
2023-04-12T21:29:15.996Z,6.03
2023-04-12T21:31:49.112Z,6.07
2023-04-12T21:34:21.863Z,6.17
2023-04-12T21:36:55.456Z,6.14
2023-04-12T21:39:28.067Z,6.20
2023-04-12T21:42:00.314Z,6.26
2023-04-12T21:44:34.518Z,6.29
2023-04-12T21:47:06.785Z,6.32
2023-04-12T21:49:38.969Z,6.35
2023-04-12T21:52:11.236Z,6.35
2023-04-12T21:54:43.404Z,6.36
2023-04-12T21:57:16.314Z,6.36
2023-04-12T21:59:48.464Z,6.32
2023-04-12T22:02:20.724Z,6.34
2023-04-12T22:04:53.411Z,6.36
2023-04-12T22:07:27.038Z,6.36
2023-04-12T22:10:00.064Z,6.38
2023-04-12T22:12:33.952Z,6.32
2023-04-12T22:15:07.815Z,6.26
2023-04-12T22:17:40.863Z,6.25
2023-04-12T22:20:14.221Z,6.25
2023-04-12T22:22:46.482Z,6.23
2023-04-12T22:25:19.080Z,6.26
2023-04-12T22:27:53.169Z,6.25
2023-04-12T22:30:26.275Z,6.22
2023-04-12T22:33:00.033Z,6.25
2023-04-12T22:35:34.844Z,6.29
2023-04-12T22:38:07.800Z,6.26
2023-04-12T22:40:39.943Z,6.33
2023-04-12T22:43:18.340Z,6.37
2023-04-12T22:45:54.160Z,6.36
2023-04-12T22:48:26.536Z,6.37
2023-04-12T22:50:59.258Z,6.46
2023-04-12T22:53:33.383Z,6.50
2023-04-12T22:56:05.809Z,6.58
2023-04-12T22:58:40.449Z,6.67
2023-04-12T23:01:12.833Z,6.68
2023-04-12T23:03:46.059Z,6.71
2023-04-12T23:06:19.809Z,6.69
2023-04-12T23:08:52.327Z,6.72
2023-04-12T23:11:24.522Z,6.70
2023-04-12T23:13:57.513Z,6.66
2023-04-12T23:16:30.128Z,6.64
2023-04-12T23:19:04.077Z,6.59
2023-04-12T23:21:36.369Z,6.51
2023-04-12T23:24:11.598Z,6.43
2023-04-12T23:26:45.422Z,6.37
2023-04-12T23:29:17.973Z,6.29
2023-04-12T23:31:51.529Z,6.28
2023-04-12T23:34:23.855Z,6.21
2023-04-12T23:36:56.630Z,6.16
2023-04-12T23:39:28.812Z,6.16
2023-04-12T23:42:01.287Z,6.16
2023-04-12T23:44:33.486Z,6.24
2023-04-12T23:47:05.823Z,6.27
2023-04-12T23:49:38.125Z,6.28
2023-04-12T23:52:10.147Z,6.29
2023-04-12T23:54:42.319Z,6.26
2023-04-12T23:57:14.602Z,6.22
2023-04-12T23:59:46.760Z,6.20
